Buoy 43528

sailwx.info

Track history (hours):
 
Tides and Currents Weather Stations Pressure Air Temp Water Temp Dewpoint Dewpoint Depression Visibility Wind Speed Wind Dir Waves Ship Positions

Drifting buoy 43528

Last reported at 2014-Jul-24 18:00 UTC. Time now 2014-Jul-24 23:04 UTC.
Position N 15°10' W 115°54'.

Water temperature 28.8 ° C

Date/timePositionNaut miles runAvg speedWind from/ knotsBaromVisibWave heightAir tempDewpointWater temp
2014-Jul-24 18:00N 15°10' W 115°54'0 0.3 28.8
2014-Jul-24 17:00N 15°10' W 115°55'1 0.9 28.6
2014-Jul-24 16:00N 15°11' W 115°54'1 0.9 28.5
2014-Jul-24 15:00N 15°11' W 115°55'0 0.2 28.4
2014-Jul-24 13:00N 15°12' W 115°54'1 0.4 28.4
2014-Jul-24 11:00N 15°11' W 115°55'0 0.3 28.4
2014-Jul-24 10:00N 15°11' W 115°55'0 0.2 28.4
2014-Jul-24 09:00N 15°11' W 115°55'1 1.0 28.4
2014-Jul-24 08:00N 15°10' W 115°55'0 0.0 28.4
2014-Jul-24 06:00N 15°10' W 115°55'1 0.8 28.5
2014-Jul-24 05:00N 15°09' W 115°54'1 0.5 28.5
2014-Jul-24 03:00N 15°10' W 115°53'1 1.1 28.5
2014-Jul-24 02:00N 15°10' W 115°52'2 0.6 28.6
2014-Jul-23 23:00N 15°11' W 115°51'1 0.7 28.6
2014-Jul-23 22:00N 15°11' W 115°50'0 0.0 28.6
2014-Jul-23 21:00N 15°11' W 115°50'3 0.7 28.6
2014-Jul-23 16:00N 15°12' W 115°47'8 1.3 28.4
2014-Jul-23 10:00N 15°12' W 115°39'3 1.5 28.4
2014-Jul-23 08:00N 15°14' W 115°36'0 0.0 28.4
2014-Jul-23 07:00N 15°14' W 115°36'6 0.9 28.4
2014-Jul-23 00:00N 15°18' W 115°31'1 0.3 28.5
2014-Jul-22 22:00N 15°18' W 115°31'1 1.2 28.5
2014-Jul-22 21:00N 15°18' W 115°30'0 0.0 28.5
2014-Jul-22 20:00N 15°18' W 115°30'2 1.0 28.5
2014-Jul-22 18:00N 15°20' W 115°29'1 0.7 28.4
2014-Jul-22 17:00N 15°21' W 115°28'1 0.5 28.3
2014-Jul-22 16:00N 15°20' W 115°28'1 0.3 28.3
2014-Jul-22 13:00N 15°21' W 115°27'0 0.2 28.3
2014-Jul-22 11:00N 15°20' W 115°26'0 0.0 28.3
2014-Jul-22 10:00N 15°20' W 115°26'0 0.0 28.3
2014-Jul-22 09:00N 15°20' W 115°26'1 0.4 28.3
2014-Jul-22 05:00N 15°20' W 115°25'1 0.7 28.3
2014-Jul-22 04:00N 15°20' W 115°24'1 1.1 28.4
2014-Jul-22 03:00N 15°20' W 115°23'0 0.0 28.4
2014-Jul-22 02:00N 15°20' W 115°23'3 1.1 28.4
2014-Jul-21 23:00N 15°19' W 115°20'1 1.0 28.4
2014-Jul-21 22:00N 15°19' W 115°19'1 0.7 28.4
2014-Jul-21 20:00N 15°20' W 115°17'2 1.1 28.4
2014-Jul-21 18:00N 15°21' W 115°15'0 0.2 28.4
2014-Jul-21 17:00N 15°21' W 115°15'2 1.7 28.4
2014-Jul-21 16:00N 15°21' W 115°14'2 0.6 28.4
2014-Jul-21 13:00N 15°22' W 115°12'0 0.4 28.5
2014-Jul-21 12:00N 15°22' W 115°12'0 0.0 28.5
2014-Jul-21 11:00N 15°22' W 115°12'4 2.0 28.5
2014-Jul-21 09:00N 15°23' W 115°08'3 0.4 28.5
2014-Jul-21 03:00N 15°25' W 115°06'2 0.9 28.6
2014-Jul-21 01:00N 15°25' W 115°05'1 0.7 28.7
2014-Jul-21 00:00N 15°25' W 115°04'1 0.7 28.7
2014-Jul-20 23:00N 15°26' W 115°03'1 1.0 28.7
2014-Jul-20 22:00N 15°26' W 115°02'1 0.6 28.7
2014-Jul-20 20:00N 15°27' W 115°01'4 1.9 28.7
2014-Jul-20 18:00N 15°29' W 114°58'1 0.6 28.6
2014-Jul-20 17:00N 15°30' W 114°58'2 1.5 28.6
2014-Jul-20 16:00N 15°31' W 114°58'0 0.0 28.6
2014-Jul-20 15:00N 15°31' W 114°58'0 0.0 28.5
2014-Jul-20 14:00N 15°31' W 114°58'2 2.0 28.5
2014-Jul-20 13:00N 15°33' W 114°57'0 0.0 28.6
2014-Jul-20 12:00N 15°33' W 114°57'2 2.1 28.6
2014-Jul-20 11:00N 15°35' W 114°56'2 1.0 28.6
2014-Jul-20 09:00N 15°36' W 114°54'0 0.1 28.6
2014-Jul-20 05:00N 15°37' W 114°54'1 0.6 28.7
2014-Jul-20 04:00N 15°37' W 114°54'0 0.2 28.7
2014-Jul-20 03:00N 15°37' W 114°53'4 0.9 28.7
2014-Jul-19 23:00N 15°40' W 114°51'0 0.4 28.8
2014-Jul-19 22:00N 15°40' W 114°51'2 0.9 28.8
2014-Jul-19 20:00N 15°42' W 114°49'3 3.0 28.8
2014-Jul-19 19:00N 15°44' W 114°48'2 1.0 28.7
2014-Jul-19 17:00N 15°46' W 114°46'0 0.0 28.7
2014-Jul-19 16:00N 15°46' W 114°46'4 1.0 28.6
2014-Jul-19 12:00N 15°47' W 114°43'3 3.0 28.7
2014-Jul-19 11:00N 15°48' W 114°40'5 2.6 28.7
2014-Jul-19 09:00N 15°52' W 114°36'0 0.0 28.7
2014-Jul-19 06:00N 15°52' W 114°36'1 1.2 28.7
2014-Jul-19 05:00N 15°53' W 114°35'3 3.2 28.7
2014-Jul-19 04:00N 15°56' W 114°34'0 0.1 28.8
2014-Jul-19 02:00N 15°56' W 114°34'1 1.4 28.8
2014-Jul-19 01:00N 15°57' W 114°33'2 1.6 28.8
2014-Jul-19 00:00N 15°59' W 114°33'2 2.1 28.8
2014-Jul-18 23:00N 16°00' W 114°32'3 1.3 28.8
2014-Jul-18 21:00N 16°03' W 114°30'0 0.0 28.8
2014-Jul-18 18:00N 16°03' W 114°30'1 1.3 28.8
2014-Jul-18 17:00N 16°04' W 114°30'0 0.0 28.8
2014-Jul-18 16:00N 16°04' W 114°30'2 0.9 28.8
2014-Jul-18 14:00N 16°05' W 114°28'3 1.4 28.8
2014-Jul-18 12:00N 16°07' W 114°26'1 1.5 28.8
2014-Jul-18 11:00N 16°06' W 114°28'3 1.5 28.8
2014-Jul-18 09:00N 16°07' W 114°25'0 0.0 28.8
2014-Jul-18 08:00N 16°07' W 114°25'2 0.8 28.8
2014-Jul-18 05:00N 16°06' W 114°23'1 0.5 28.9
2014-Jul-18 04:00N 16°06' W 114°23'3 1.1 28.9
2014-Jul-18 01:00N 16°06' W 114°20'4 1.0 29.0
2014-Jul-17 21:00N 16°07' W 114°16'6 1.6 29.0
2014-Jul-17 17:00N 16°08' W 114°09'0 0.0 28.8
2014-Jul-17 16:00N 16°08' W 114°09'0 0.0 28.8
2014-Jul-17 15:00N 16°08' W 114°09'4 1.5 28.8
2014-Jul-17 12:00N 16°09' W 114°05'3 1.3 28.8
2014-Jul-17 10:00N 16°09' W 114°02'0 0.0 28.8
2014-Jul-17 08:00N 16°09' W 114°02'0 0.0 28.8
2014-Jul-17 06:00N 16°09' W 114°02'1 1.4 28.9
2014-Jul-17 05:00N 16°09' W 114°00'0 0.0 28.9
2014-Jul-17 04:00N 16°09' W 114°00'8 1.9 28.9
2014-Jul-17 00:00N 16°09' W 113°53'0 0.0 29.0
2014-Jul-16 21:00N 16°09' W 113°53'3 1.0 29.0
2014-Jul-16 18:00N 16°08' W 113°50'0 0.1 28.9
2014-Jul-16 16:00N 16°08' W 113°49'3 1.1 28.9
2014-Jul-16 13:00N 16°05' W 113°47'2 1.7 28.9
2014-Jul-16 12:00N 16°05' W 113°45'0 0.0 28.9
2014-Jul-16 11:00N 16°05' W 113°45'2 2.4 28.9
2014-Jul-16 10:00N 16°03' W 113°43'4 0.8 28.9
2014-Jul-16 05:00N 16°01' W 113°40'3 3.0 29.0
2014-Jul-16 04:00N 15°59' W 113°38'0 0.0 29.1
2014-Jul-16 03:00N 15°59' W 113°38'3 1.2 29.1
2014-Jul-16 00:00N 15°57' W 113°35'2 1.0 29.2
2014-Jul-15 22:00N 15°56' W 113°33'2 1.7 29.2
2014-Jul-15 21:00N 15°55' W 113°31'5 1.7 29.2
2014-Jul-15 18:00N 15°53' W 113°27'1 0.8 29.1
2014-Jul-15 17:00N 15°52' W 113°26'2 1.7 29.0
2014-Jul-15 16:00N 15°51' W 113°25'3 0.9 29.0
2014-Jul-15 13:00N 15°49' W 113°23'1 1.0 29.0
2014-Jul-15 12:00N 15°49' W 113°22'1 1.1 29.0
2014-Jul-15 11:00N 15°48' W 113°21'1 1.2 29.0
2014-Jul-15 10:00N 15°48' W 113°20'0 0.0 29.0
2014-Jul-15 09:00N 15°48' W 113°20'2 1.9 29.1
2014-Jul-15 08:00N 15°46' W 113°18'0 0.0 29.1
2014-Jul-15 07:00N 15°46' W 113°18'1 1.1 29.2
2014-Jul-15 06:00N 15°45' W 113°18'1 0.3 29.2
2014-Jul-15 04:00N 15°45' W 113°17'3 1.1 29.2
2014-Jul-15 01:00N 15°42' W 113°16'1 0.9 29.4
2014-Jul-15 00:00N 15°41' W 113°15'0 0.4 29.4
2014-Jul-14 23:00N 15°40' W 113°15'2 2.5 29.5
2014-Jul-14 22:00N 15°38' W 113°14'0 0.0 29.6
2014-Jul-14 21:00N 15°38' W 113°14'   29.5
Track history (hours):
 
Tides and Currents Weather Stations Pressure Air Temp Water Temp Dewpoint Dewpoint Depression Visibility Wind Speed Wind Dir Waves Ship Positions

Drifting buoy 43528

Last reported at 2014-Jul-24 18:00 UTC. Time now 2014-Jul-24 23:04 UTC.
Position N 15°10' W 115°54'.

Water temperature 28.8 ° C

Date/timePositionNaut miles runAvg speedWind from/ knotsBaromVisibWave heightAir tempDewpointWater temp
2014-Jul-24 18:00N 15°10' W 115°54'0 0.3 28.8
2014-Jul-24 17:00N 15°10' W 115°55'1 0.9 28.6
2014-Jul-24 16:00N 15°11' W 115°54'1 0.9 28.5
2014-Jul-24 15:00N 15°11' W 115°55'0 0.2 28.4
2014-Jul-24 13:00N 15°12' W 115°54'1 0.4 28.4
2014-Jul-24 11:00N 15°11' W 115°55'0 0.3 28.4
2014-Jul-24 10:00N 15°11' W 115°55'0 0.2 28.4
2014-Jul-24 09:00N 15°11' W 115°55'1 1.0 28.4
2014-Jul-24 08:00N 15°10' W 115°55'0 0.0 28.4
2014-Jul-24 06:00N 15°10' W 115°55'1 0.8 28.5
2014-Jul-24 05:00N 15°09' W 115°54'1 0.5 28.5
2014-Jul-24 03:00N 15°10' W 115°53'1 1.1 28.5
2014-Jul-24 02:00N 15°10' W 115°52'2 0.6 28.6
2014-Jul-23 23:00N 15°11' W 115°51'1 0.7 28.6
2014-Jul-23 22:00N 15°11' W 115°50'0 0.0 28.6
2014-Jul-23 21:00N 15°11' W 115°50'3 0.7 28.6
2014-Jul-23 16:00N 15°12' W 115°47'8 1.3 28.4
2014-Jul-23 10:00N 15°12' W 115°39'3 1.5 28.4
2014-Jul-23 08:00N 15°14' W 115°36'0 0.0 28.4
2014-Jul-23 07:00N 15°14' W 115°36'6 0.9 28.4
2014-Jul-23 00:00N 15°18' W 115°31'1 0.3 28.5
2014-Jul-22 22:00N 15°18' W 115°31'1 1.2 28.5
2014-Jul-22 21:00N 15°18' W 115°30'0 0.0 28.5
2014-Jul-22 20:00N 15°18' W 115°30'2 1.0 28.5
2014-Jul-22 18:00N 15°20' W 115°29'1 0.7 28.4
2014-Jul-22 17:00N 15°21' W 115°28'1 0.5 28.3
2014-Jul-22 16:00N 15°20' W 115°28'1 0.3 28.3
2014-Jul-22 13:00N 15°21' W 115°27'0 0.2 28.3
2014-Jul-22 11:00N 15°20' W 115°26'0 0.0 28.3
2014-Jul-22 10:00N 15°20' W 115°26'0 0.0 28.3
2014-Jul-22 09:00N 15°20' W 115°26'1 0.4 28.3
2014-Jul-22 05:00N 15°20' W 115°25'1 0.7 28.3
2014-Jul-22 04:00N 15°20' W 115°24'1 1.1 28.4
2014-Jul-22 03:00N 15°20' W 115°23'0 0.0 28.4
2014-Jul-22 02:00N 15°20' W 115°23'3 1.1 28.4
2014-Jul-21 23:00N 15°19' W 115°20'1 1.0 28.4
2014-Jul-21 22:00N 15°19' W 115°19'1 0.7 28.4
2014-Jul-21 20:00N 15°20' W 115°17'2 1.1 28.4
2014-Jul-21 18:00N 15°21' W 115°15'0 0.2 28.4
2014-Jul-21 17:00N 15°21' W 115°15'2 1.7 28.4
2014-Jul-21 16:00N 15°21' W 115°14'2 0.6 28.4
2014-Jul-21 13:00N 15°22' W 115°12'0 0.4 28.5
2014-Jul-21 12:00N 15°22' W 115°12'0 0.0 28.5
2014-Jul-21 11:00N 15°22' W 115°12'4 2.0 28.5
2014-Jul-21 09:00N 15°23' W 115°08'3 0.4 28.5
2014-Jul-21 03:00N 15°25' W 115°06'2 0.9 28.6
2014-Jul-21 01:00N 15°25' W 115°05'1 0.7 28.7
2014-Jul-21 00:00N 15°25' W 115°04'1 0.7 28.7
2014-Jul-20 23:00N 15°26' W 115°03'1 1.0 28.7
2014-Jul-20 22:00N 15°26' W 115°02'1 0.6 28.7
2014-Jul-20 20:00N 15°27' W 115°01'4 1.9 28.7
2014-Jul-20 18:00N 15°29' W 114°58'1 0.6 28.6
2014-Jul-20 17:00N 15°30' W 114°58'2 1.5 28.6
2014-Jul-20 16:00N 15°31' W 114°58'0 0.0 28.6
2014-Jul-20 15:00N 15°31' W 114°58'0 0.0 28.5
2014-Jul-20 14:00N 15°31' W 114°58'2 2.0 28.5
2014-Jul-20 13:00N 15°33' W 114°57'0 0.0 28.6
2014-Jul-20 12:00N 15°33' W 114°57'2 2.1 28.6
2014-Jul-20 11:00N 15°35' W 114°56'2 1.0 28.6
2014-Jul-20 09:00N 15°36' W 114°54'0 0.1 28.6
2014-Jul-20 05:00N 15°37' W 114°54'1 0.6 28.7
2014-Jul-20 04:00N 15°37' W 114°54'0 0.2 28.7
2014-Jul-20 03:00N 15°37' W 114°53'4 0.9 28.7
2014-Jul-19 23:00N 15°40' W 114°51'0 0.4 28.8
2014-Jul-19 22:00N 15°40' W 114°51'2 0.9 28.8
2014-Jul-19 20:00N 15°42' W 114°49'3 3.0 28.8
2014-Jul-19 19:00N 15°44' W 114°48'2 1.0 28.7
2014-Jul-19 17:00N 15°46' W 114°46'0 0.0 28.7
2014-Jul-19 16:00N 15°46' W 114°46'4 1.0 28.6
2014-Jul-19 12:00N 15°47' W 114°43'3 3.0 28.7
2014-Jul-19 11:00N 15°48' W 114°40'5 2.6 28.7
2014-Jul-19 09:00N 15°52' W 114°36'0 0.0 28.7
2014-Jul-19 06:00N 15°52' W 114°36'1 1.2 28.7
2014-Jul-19 05:00N 15°53' W 114°35'3 3.2 28.7
2014-Jul-19 04:00N 15°56' W 114°34'0 0.1 28.8
2014-Jul-19 02:00N 15°56' W 114°34'1 1.4 28.8
2014-Jul-19 01:00N 15°57' W 114°33'2 1.6 28.8
2014-Jul-19 00:00N 15°59' W 114°33'2 2.1 28.8
2014-Jul-18 23:00N 16°00' W 114°32'3 1.3 28.8
2014-Jul-18 21:00N 16°03' W 114°30'0 0.0 28.8
2014-Jul-18 18:00N 16°03' W 114°30'1 1.3 28.8
2014-Jul-18 17:00N 16°04' W 114°30'0 0.0 28.8
2014-Jul-18 16:00N 16°04' W 114°30'2 0.9 28.8
2014-Jul-18 14:00N 16°05' W 114°28'3 1.4 28.8
2014-Jul-18 12:00N 16°07' W 114°26'1 1.5 28.8
2014-Jul-18 11:00N 16°06' W 114°28'3 1.5 28.8
2014-Jul-18 09:00N 16°07' W 114°25'0 0.0 28.8
2014-Jul-18 08:00N 16°07' W 114°25'2 0.8 28.8
2014-Jul-18 05:00N 16°06' W 114°23'1 0.5 28.9
2014-Jul-18 04:00N 16°06' W 114°23'3 1.1 28.9
2014-Jul-18 01:00N 16°06' W 114°20'4 1.0 29.0
2014-Jul-17 21:00N 16°07' W 114°16'6 1.6 29.0
2014-Jul-17 17:00N 16°08' W 114°09'0 0.0 28.8
2014-Jul-17 16:00N 16°08' W 114°09'0 0.0 28.8
2014-Jul-17 15:00N 16°08' W 114°09'4 1.5 28.8
2014-Jul-17 12:00N 16°09' W 114°05'3 1.3 28.8
2014-Jul-17 10:00N 16°09' W 114°02'0 0.0 28.8
2014-Jul-17 08:00N 16°09' W 114°02'0 0.0 28.8
2014-Jul-17 06:00N 16°09' W 114°02'1 1.4 28.9
2014-Jul-17 05:00N 16°09' W 114°00'0 0.0 28.9
2014-Jul-17 04:00N 16°09' W 114°00'8 1.9 28.9
2014-Jul-17 00:00N 16°09' W 113°53'0 0.0 29.0
2014-Jul-16 21:00N 16°09' W 113°53'3 1.0 29.0
2014-Jul-16 18:00N 16°08' W 113°50'0 0.1 28.9
2014-Jul-16 16:00N 16°08' W 113°49'3 1.1 28.9
2014-Jul-16 13:00N 16°05' W 113°47'2 1.7 28.9
2014-Jul-16 12:00N 16°05' W 113°45'0 0.0 28.9
2014-Jul-16 11:00N 16°05' W 113°45'2 2.4 28.9
2014-Jul-16 10:00N 16°03' W 113°43'4 0.8 28.9
2014-Jul-16 05:00N 16°01' W 113°40'3 3.0 29.0
2014-Jul-16 04:00N 15°59' W 113°38'0 0.0 29.1
2014-Jul-16 03:00N 15°59' W 113°38'3 1.2 29.1
2014-Jul-16 00:00N 15°57' W 113°35'2 1.0 29.2
2014-Jul-15 22:00N 15°56' W 113°33'2 1.7 29.2
2014-Jul-15 21:00N 15°55' W 113°31'5 1.7 29.2
2014-Jul-15 18:00N 15°53' W 113°27'1 0.8 29.1
2014-Jul-15 17:00N 15°52' W 113°26'2 1.7 29.0
2014-Jul-15 16:00N 15°51' W 113°25'3 0.9 29.0
2014-Jul-15 13:00N 15°49' W 113°23'1 1.0 29.0
2014-Jul-15 12:00N 15°49' W 113°22'1 1.1 29.0
2014-Jul-15 11:00N 15°48' W 113°21'1 1.2 29.0
2014-Jul-15 10:00N 15°48' W 113°20'0 0.0 29.0
2014-Jul-15 09:00N 15°48' W 113°20'2 1.9 29.1
2014-Jul-15 08:00N 15°46' W 113°18'0 0.0 29.1
2014-Jul-15 07:00N 15°46' W 113°18'1 1.1 29.2
2014-Jul-15 06:00N 15°45' W 113°18'1 0.3 29.2
2014-Jul-15 04:00N 15°45' W 113°17'3 1.1 29.2
2014-Jul-15 01:00N 15°42' W 113°16'1 0.9 29.4
2014-Jul-15 00:00N 15°41' W 113°15'0 0.4 29.4
2014-Jul-14 23:00N 15°40' W 113°15'2 2.5 29.5
2014-Jul-14 22:00N 15°38' W 113°14'0 0.0 29.6
2014-Jul-14 21:00N 15°38' W 113°14'   29.5

Dump ship's entire track history